CNR4 weather

Tobermory Airport
Tobermory, Ontario, Canada

Public forecast

Using degrees Celsius for public forecast. Weather courtesy of forecast.io.

METAR (pilot weather report)

Closest report is Wiarton Airport, 36.1 nm (66.9 km) SE. Retrieved 2019/04/21 08:00 UTC (37 minutes ago):

CYVV 210800Z 00000KT 8SM -RA OVC012 06/06 A2982 RMK SC8 SLP106

TAF (pilot weather forecast)

Forecast is more than 12 hours old.

Closest forecast is Wiarton Airport, 36.1 nm (66.9 km) SE. Retrieved 2019/04/20 20:00 UTC (13 hours ago):

TAF CYVV 201938Z 2020/2023 05012KT P6SM -RA OVC035 TEMPO 2020/2023 4SM -SHRA BR BKN008 OVC015 RMK NXT FCST WILL BE ISSUED AT 211045Z